sensor_id;sensor_type;location;lat;lon;timestamp;P1;durP1;ratioP1;P2;durP2;ratioP2
42144;SDS011;27813;43.516;11.890;2023-09-19T05:24:13;9.93;;;5.53;;
42144;SDS011;27813;43.516;11.890;2023-09-19T05:52:12;7.25;;;4.82;;
42144;SDS011;27813;43.516;11.890;2023-09-19T06:01:15;11.35;;;4.95;;
42144;SDS011;27813;43.516;11.890;2023-09-19T06:05:19;8.25;;;5.30;;
42144;SDS011;27813;43.516;11.890;2023-09-19T06:09:24;6.43;;;5.32;;
42144;SDS011;27813;43.516;11.890;2023-09-19T06:13:28;10.15;;;4.72;;
42144;SDS011;27813;43.516;11.890;2023-09-19T06:17:32;8.05;;;4.50;;
42144;SDS011;27813;43.516;11.890;2023-09-19T06:21:36;7.78;;;4.80;;
42144;SDS011;27813;43.516;11.890;2023-09-19T06:25:43;7.53;;;4.78;;
42144;SDS011;27813;43.516;11.890;2023-09-19T06:34:23;7.25;;;4.75;;
42144;SDS011;27813;43.516;11.890;2023-09-19T06:38:27;8.90;;;4.13;;
42144;SDS011;27813;43.516;11.890;2023-09-19T06:42:31;8.15;;;4.50;;
42144;SDS011;27813;43.516;11.890;2023-09-19T06:46:41;9.13;;;4.25;;
42144;SDS011;27813;43.516;11.890;2023-09-19T06:50:47;7.13;;;4.63;;
42144;SDS011;27813;43.516;11.890;2023-09-19T06:54:55;8.63;;;4.65;;
42144;SDS011;27813;43.516;11.890;2023-09-19T06:59:26;9.43;;;5.18;;
42144;SDS011;27813;43.516;11.890;2023-09-19T07:03:30;7.93;;;4.80;;
42144;SDS011;27813;43.516;11.890;2023-09-19T07:07:42;7.95;;;4.40;;
42144;SDS011;27813;43.516;11.890;2023-09-19T07:11:49;7.85;;;4.18;;
42144;SDS011;27813;43.516;11.890;2023-09-19T07:15:54;12.10;;;4.75;;
42144;SDS011;27813;43.516;11.890;2023-09-19T07:19:58;11.50;;;5.03;;
42144;SDS011;27813;43.516;11.890;2023-09-19T07:24:02;6.70;;;4.10;;
42144;SDS011;27813;43.516;11.890;2023-09-19T07:28:06;5.93;;;4.22;;
42144;SDS011;27813;43.516;11.890;2023-09-19T07:32:10;11.90;;;4.40;;
42144;SDS011;27813;43.516;11.890;2023-09-19T07:36:14;9.07;;;5.30;;
42144;SDS011;27813;43.516;11.890;2023-09-19T07:40:19;9.90;;;5.30;;
42144;SDS011;27813;43.516;11.890;2023-09-19T07:44:27;8.45;;;5.15;;
42144;SDS011;27813;43.516;11.890;2023-09-19T07:48:31;8.77;;;4.80;;
42144;SDS011;27813;43.516;11.890;2023-09-19T07:52:35;8.35;;;5.22;;
42144;SDS011;27813;43.516;11.890;2023-09-19T07:56:38;12.02;;;5.07;;
42144;SDS011;27813;43.516;11.890;2023-09-19T08:00:45;10.55;;;5.75;;
42144;SDS011;27813;43.516;11.890;2023-09-19T08:04:49;23.25;;;10.68;;
42144;SDS011;27813;43.516;11.890;2023-09-19T08:08:55;25.35;;;11.55;;
42144;SDS011;27813;43.516;11.890;2023-09-19T08:13:00;17.85;;;9.75;;
42144;SDS011;27813;43.516;11.890;2023-09-19T08:17:08;15.77;;;8.15;;
42144;SDS011;27813;43.516;11.890;2023-09-19T08:21:12;15.63;;;8.00;;
42144;SDS011;27813;43.516;11.890;2023-09-19T08:25:19;14.82;;;7.25;;
42144;SDS011;27813;43.516;11.890;2023-09-19T08:29:32;29.50;;;12.52;;
42144;SDS011;27813;43.516;11.890;2023-09-19T08:33:36;17.20;;;7.78;;
42144;SDS011;27813;43.516;11.890;2023-09-19T08:37:44;14.85;;;6.97;;
42144;SDS011;27813;43.516;11.890;2023-09-19T08:41:49;15.50;;;6.88;;
42144;SDS011;27813;43.516;11.890;2023-09-19T08:46:06;12.40;;;6.30;;
42144;SDS011;27813;43.516;11.890;2023-09-19T08:50:27;10.90;;;5.13;;
42144;SDS011;27813;43.516;11.890;2023-09-19T08:54:35;12.25;;;5.25;;
42144;SDS011;27813;43.516;11.890;2023-09-19T08:58:55;9.20;;;4.90;;
42144;SDS011;27813;43.516;11.890;2023-09-19T09:03:03;12.20;;;4.57;;
42144;SDS011;27813;43.516;11.890;2023-09-19T09:07:15;11.70;;;4.50;;
42144;SDS011;27813;43.516;11.890;2023-09-19T09:11:22;12.48;;;4.40;;
42144;SDS011;27813;43.516;11.890;2023-09-19T09:15:31;10.73;;;4.60;;
42144;SDS011;27813;43.516;11.890;2023-09-19T09:19:42;11.30;;;3.75;;
42144;SDS011;27813;43.516;11.890;2023-09-19T09:23:58;6.95;;;3.35;;
42144;SDS011;27813;43.516;11.890;2023-09-19T09:28:23;11.85;;;3.22;;
42144;SDS011;27813;43.516;11.890;2023-09-19T09:32:33;4.80;;;2.88;;
42144;SDS011;27813;43.516;11.890;2023-09-19T09:37:07;12.57;;;4.20;;
42144;SDS011;27813;43.516;11.890;2023-09-19T09:41:24;9.15;;;4.00;;
42144;SDS011;27813;43.516;11.890;2023-09-19T09:45:43;8.82;;;3.40;;
42144;SDS011;27813;43.516;11.890;2023-09-19T09:49:52;6.35;;;3.10;;
42144;SDS011;27813;43.516;11.890;2023-09-19T09:58:21;7.03;;;3.67;;
42144;SDS011;27813;43.516;11.890;2023-09-19T10:02:35;7.07;;;3.97;;
42144;SDS011;27813;43.516;11.890;2023-09-19T10:06:40;10.30;;;3.60;;
42144;SDS011;27813;43.516;11.890;2023-09-19T10:10:50;7.30;;;3.13;;
42144;SDS011;27813;43.516;11.890;2023-09-19T10:15:07;7.15;;;3.13;;
42144;SDS011;27813;43.516;11.890;2023-09-19T10:19:21;8.48;;;3.33;;
42144;SDS011;27813;43.516;11.890;2023-09-19T10:23:36;8.70;;;3.60;;
42144;SDS011;27813;43.516;11.890;2023-09-19T10:27:48;8.90;;;3.75;;
42144;SDS011;27813;43.516;11.890;2023-09-19T10:31:53;10.07;;;3.05;;
42144;SDS011;27813;43.516;11.890;2023-09-19T10:36:04;7.93;;;3.30;;
42144;SDS011;27813;43.516;11.890;2023-09-19T10:40:09;6.25;;;3.22;;
42144;SDS011;27813;43.516;11.890;2023-09-19T10:44:15;6.30;;;3.50;;
42144;SDS011;27813;43.516;11.890;2023-09-19T10:48:24;9.90;;;3.33;;
42144;SDS011;27813;43.516;11.890;2023-09-19T10:52:29;6.82;;;3.55;;
42144;SDS011;27813;43.516;11.890;2023-09-19T10:56:36;6.20;;;2.97;;
42144;SDS011;27813;43.516;11.890;2023-09-19T11:00:57;8.65;;;3.60;;
42144;SDS011;27813;43.516;11.890;2023-09-19T11:09:58;5.85;;;3.42;;
42144;SDS011;27813;43.516;11.890;2023-09-19T11:27:13;5.93;;;2.67;;
42144;SDS011;27813;43.516;11.890;2023-09-19T11:31:42;6.67;;;2.80;;
42144;SDS011;27813;43.516;11.890;2023-09-19T11:36:13;8.77;;;2.90;;
42144;SDS011;27813;43.516;11.890;2023-09-19T11:40:19;4.85;;;2.92;;
42144;SDS011;27813;43.516;11.890;2023-09-19T11:48:29;7.70;;;3.10;;
42144;SDS011;27813;43.516;11.890;2023-09-19T11:52:34;7.32;;;2.88;;
42144;SDS011;27813;43.516;11.890;2023-09-19T11:56:40;6.75;;;3.60;;
42144;SDS011;27813;43.516;11.890;2023-09-19T12:00:45;6.22;;;2.83;;
42144;SDS011;27813;43.516;11.890;2023-09-19T12:04:53;6.72;;;2.92;;
42144;SDS011;27813;43.516;11.890;2023-09-19T12:08:57;4.35;;;2.17;;
42144;SDS011;27813;43.516;11.890;2023-09-19T12:13:02;6.10;;;2.83;;
42144;SDS011;27813;43.516;11.890;2023-09-19T12:17:08;6.00;;;2.70;;
42144;SDS011;27813;43.516;11.890;2023-09-19T12:21:22;7.55;;;2.55;;
42144;SDS011;27813;43.516;11.890;2023-09-19T12:25:30;5.88;;;2.85;;
42144;SDS011;27813;43.516;11.890;2023-09-19T12:33:58;6.50;;;2.58;;
42144;SDS011;27813;43.516;11.890;2023-09-19T12:38:04;9.80;;;2.40;;
42144;SDS011;27813;43.516;11.890;2023-09-19T12:42:19;5.53;;;2.47;;
42144;SDS011;27813;43.516;11.890;2023-09-19T12:46:31;6.97;;;3.03;;
42144;SDS011;27813;43.516;11.890;2023-09-19T12:50:35;6.10;;;2.70;;
42144;SDS011;27813;43.516;11.890;2023-09-19T12:55:34;9.85;;;2.70;;
42144;SDS011;27813;43.516;11.890;2023-09-19T12:59:43;7.50;;;2.50;;
42144;SDS011;27813;43.516;11.890;2023-09-19T13:04:09;6.63;;;2.33;;
42144;SDS011;27813;43.516;11.890;2023-09-19T13:08:32;6.75;;;2.83;;
42144;SDS011;27813;43.516;11.890;2023-09-19T13:12:41;4.18;;;2.47;;
42144;SDS011;27813;43.516;11.890;2023-09-19T13:17:03;4.00;;;2.15;;
42144;SDS011;27813;43.516;11.890;2023-09-19T13:21:29;6.97;;;2.00;;
42144;SDS011;27813;43.516;11.890;2023-09-19T13:25:46;5.53;;;2.35;;
42144;SDS011;27813;43.516;11.890;2023-09-19T13:29:51;6.38;;;2.22;;
42144;SDS011;27813;43.516;11.890;2023-09-19T13:33:54;5.78;;;2.15;;
42144;SDS011;27813;43.516;11.890;2023-09-19T13:37:58;5.15;;;1.70;;
42144;SDS011;27813;43.516;11.890;2023-09-19T13:42:05;3.38;;;2.00;;
42144;SDS011;27813;43.516;11.890;2023-09-19T13:46:20;6.43;;;1.95;;
42144;SDS011;27813;43.516;11.890;2023-09-19T13:50:29;5.30;;;2.00;;
42144;SDS011;27813;43.516;11.890;2023-09-19T13:54:34;8.60;;;2.72;;
42144;SDS011;27813;43.516;11.890;2023-09-19T13:58:38;4.45;;;2.28;;
42144;SDS011;27813;43.516;11.890;2023-09-19T14:02:42;3.53;;;1.85;;
42144;SDS011;27813;43.516;11.890;2023-09-19T14:06:49;6.00;;;2.00;;
42144;SDS011;27813;43.516;11.890;2023-09-19T14:10:53;5.53;;;1.70;;
42144;SDS011;27813;43.516;11.890;2023-09-19T14:14:57;5.88;;;1.98;;
42144;SDS011;27813;43.516;11.890;2023-09-19T14:19:00;6.00;;;1.88;;
42144;SDS011;27813;43.516;11.890;2023-09-19T14:23:04;4.13;;;1.75;;
42144;SDS011;27813;43.516;11.890;2023-09-19T14:27:09;4.85;;;1.40;;
42144;SDS011;27813;43.516;11.890;2023-09-19T14:31:14;4.82;;;2.17;;
42144;SDS011;27813;43.516;11.890;2023-09-19T14:35:18;5.20;;;1.50;;
42144;SDS011;27813;43.516;11.890;2023-09-19T14:39:21;8.20;;;1.70;;
42144;SDS011;27813;43.516;11.890;2023-09-19T14:43:26;4.05;;;1.80;;
42144;SDS011;27813;43.516;11.890;2023-09-19T14:47:32;3.80;;;1.70;;
42144;SDS011;27813;43.516;11.890;2023-09-19T14:51:40;4.82;;;2.00;;
42144;SDS011;27813;43.516;11.890;2023-09-19T14:55:44;3.45;;;1.95;;
42144;SDS011;27813;43.516;11.890;2023-09-19T14:59:50;6.25;;;1.98;;
42144;SDS011;27813;43.516;11.890;2023-09-19T15:03:54;3.25;;;1.63;;
42144;SDS011;27813;43.516;11.890;2023-09-19T15:07:59;3.60;;;1.90;;
42144;SDS011;27813;43.516;11.890;2023-09-19T15:12:03;4.30;;;1.90;;
42144;SDS011;27813;43.516;11.890;2023-09-19T15:16:07;3.72;;;1.70;;
42144;SDS011;27813;43.516;11.890;2023-09-19T15:20:12;3.72;;;1.90;;
42144;SDS011;27813;43.516;11.890;2023-09-19T15:24:17;4.97;;;2.05;;
42144;SDS011;27813;43.516;11.890;2023-09-19T15:28:21;6.50;;;1.80;;
42144;SDS011;27813;43.516;11.890;2023-09-19T15:32:26;3.47;;;1.77;;
42144;SDS011;27813;43.516;11.890;2023-09-19T15:36:30;4.72;;;1.50;;
42144;SDS011;27813;43.516;11.890;2023-09-19T15:40:33;6.32;;;2.10;;
42144;SDS011;27813;43.516;11.890;2023-09-19T15:44:37;4.53;;;1.95;;
42144;SDS011;27813;43.516;11.890;2023-09-19T15:48:41;4.22;;;1.92;;
42144;SDS011;27813;43.516;11.890;2023-09-19T15:52:45;4.13;;;1.90;;
42144;SDS011;27813;43.516;11.890;2023-09-19T15:56:50;4.57;;;1.60;;
42144;SDS011;27813;43.516;11.890;2023-09-19T16:00:55;4.82;;;1.88;;
42144;SDS011;27813;43.516;11.890;2023-09-19T16:04:59;4.53;;;2.03;;
42144;SDS011;27813;43.516;11.890;2023-09-19T16:09:03;2.83;;;1.70;;
42144;SDS011;27813;43.516;11.890;2023-09-19T16:13:08;6.55;;;1.83;;
42144;SDS011;27813;43.516;11.890;2023-09-19T16:17:12;6.97;;;2.35;;
42144;SDS011;27813;43.516;11.890;2023-09-19T16:21:17;2.92;;;1.48;;
42144;SDS011;27813;43.516;11.890;2023-09-19T16:25:25;4.05;;;2.30;;
42144;SDS011;27813;43.516;11.890;2023-09-19T16:29:29;8.32;;;2.70;;
42144;SDS011;27813;43.516;11.890;2023-09-19T16:33:36;5.47;;;2.05;;
42144;SDS011;27813;43.516;11.890;2023-09-19T16:37:45;4.18;;;1.65;;
42144;SDS011;27813;43.516;11.890;2023-09-19T16:41:50;7.13;;;1.80;;
42144;SDS011;27813;43.516;11.890;2023-09-19T16:45:58;4.30;;;1.48;;
42144;SDS011;27813;43.516;11.890;2023-09-19T16:50:09;4.97;;;2.05;;
42144;SDS011;27813;43.516;11.890;2023-09-19T16:54:13;3.65;;;1.40;;
42144;SDS011;27813;43.516;11.890;2023-09-19T16:58:17;3.83;;;1.55;;
42144;SDS011;27813;43.516;11.890;2023-09-19T17:02:21;4.05;;;1.58;;
42144;SDS011;27813;43.516;11.890;2023-09-19T17:06:25;3.40;;;1.40;;
42144;SDS011;27813;43.516;11.890;2023-09-19T17:10:32;2.50;;;1.40;;
42144;SDS011;27813;43.516;11.890;2023-09-19T17:14:41;4.93;;;1.73;;
42144;SDS011;27813;43.516;11.890;2023-09-19T17:18:53;5.75;;;1.70;;
42144;SDS011;27813;43.516;11.890;2023-09-19T17:22:59;3.30;;;1.37;;
42144;SDS011;27813;43.516;11.890;2023-09-19T17:27:03;3.33;;;1.70;;
42144;SDS011;27813;43.516;11.890;2023-09-19T17:31:10;6.10;;;1.45;;
42144;SDS011;27813;43.516;11.890;2023-09-19T17:35:18;5.32;;;2.45;;
42144;SDS011;27813;43.516;11.890;2023-09-19T17:39:23;2.75;;;1.52;;
42144;SDS011;27813;43.516;11.890;2023-09-19T17:43:28;6.15;;;2.28;;
42144;SDS011;27813;43.516;11.890;2023-09-19T17:47:34;6.03;;;2.03;;
42144;SDS011;27813;43.516;11.890;2023-09-19T17:51:41;3.88;;;1.40;;
42144;SDS011;27813;43.516;11.890;2023-09-19T17:55:45;3.95;;;1.38;;
42144;SDS011;27813;43.516;11.890;2023-09-19T17:59:49;4.07;;;1.55;;
42144;SDS011;27813;43.516;11.890;2023-09-19T18:03:55;11.25;;;2.38;;
42144;SDS011;27813;43.516;11.890;2023-09-19T18:08:03;5.47;;;1.70;;
42144;SDS011;27813;43.516;11.890;2023-09-19T18:12:07;4.45;;;1.42;;
42144;SDS011;27813;43.516;11.890;2023-09-19T18:16:11;5.43;;;1.50;;
42144;SDS011;27813;43.516;11.890;2023-09-19T18:20:16;5.25;;;1.80;;
42144;SDS011;27813;43.516;11.890;2023-09-19T18:24:22;8.82;;;2.70;;
42144;SDS011;27813;43.516;11.890;2023-09-19T18:28:26;3.65;;;1.55;;
42144;SDS011;27813;43.516;11.890;2023-09-19T18:32:30;3.88;;;1.58;;
42144;SDS011;27813;43.516;11.890;2023-09-19T18:36:35;4.10;;;1.85;;
42144;SDS011;27813;43.516;11.890;2023-09-19T18:40:44;5.32;;;1.80;;
42144;SDS011;27813;43.516;11.890;2023-09-19T18:44:47;3.42;;;1.42;;
42144;SDS011;27813;43.516;11.890;2023-09-19T18:48:52;5.10;;;1.40;;
42144;SDS011;27813;43.516;11.890;2023-09-19T18:52:57;3.05;;;1.48;;
42144;SDS011;27813;43.516;11.890;2023-09-19T18:57:02;2.53;;;1.40;;
42144;SDS011;27813;43.516;11.890;2023-09-19T19:01:07;4.40;;;1.13;;
42144;SDS011;27813;43.516;11.890;2023-09-19T19:05:12;5.00;;;1.60;;
42144;SDS011;27813;43.516;11.890;2023-09-19T19:09:19;3.50;;;1.80;;
42144;SDS011;27813;43.516;11.890;2023-09-19T19:13:23;3.33;;;1.67;;
42144;SDS011;27813;43.516;11.890;2023-09-19T19:17:28;4.40;;;1.90;;
42144;SDS011;27813;43.516;11.890;2023-09-19T19:21:34;4.55;;;1.45;;
42144;SDS011;27813;43.516;11.890;2023-09-19T19:25:45;3.17;;;1.40;;
42144;SDS011;27813;43.516;11.890;2023-09-19T19:29:50;3.45;;;1.50;;
42144;SDS011;27813;43.516;11.890;2023-09-19T19:33:55;2.45;;;1.45;;
42144;SDS011;27813;43.516;11.890;2023-09-19T19:38:00;2.70;;;1.50;;
42144;SDS011;27813;43.516;11.890;2023-09-19T19:42:06;3.13;;;1.60;;
42144;SDS011;27813;43.516;11.890;2023-09-19T19:46:12;2.85;;;1.50;;
42144;SDS011;27813;43.516;11.890;2023-09-19T19:50:19;3.85;;;1.60;;
42144;SDS011;27813;43.516;11.890;2023-09-19T19:54:23;4.03;;;1.48;;
42144;SDS011;27813;43.516;11.890;2023-09-19T19:58:29;2.08;;;1.40;;
42144;SDS011;27813;43.516;11.890;2023-09-19T20:02:34;3.33;;;1.45;;
42144;SDS011;27813;43.516;11.890;2023-09-19T20:06:42;3.80;;;1.45;;
42144;SDS011;27813;43.516;11.890;2023-09-19T20:10:52;5.80;;;1.90;;
42144;SDS011;27813;43.516;11.890;2023-09-19T20:14:56;1.85;;;1.20;;
42144;SDS011;27813;43.516;11.890;2023-09-19T20:19:02;3.47;;;1.40;;
42144;SDS011;27813;43.516;11.890;2023-09-19T20:23:09;5.40;;;1.95;;
42144;SDS011;27813;43.516;11.890;2023-09-19T20:27:17;6.38;;;1.77;;
42144;SDS011;27813;43.516;11.890;2023-09-19T20:31:24;4.22;;;1.63;;
42144;SDS011;27813;43.516;11.890;2023-09-19T20:35:29;4.40;;;1.65;;
42144;SDS011;27813;43.516;11.890;2023-09-19T20:39:36;3.85;;;1.52;;
42144;SDS011;27813;43.516;11.890;2023-09-19T20:43:41;3.20;;;1.50;;
42144;SDS011;27813;43.516;11.890;2023-09-19T20:47:46;4.15;;;1.63;;
42144;SDS011;27813;43.516;11.890;2023-09-19T20:51:57;3.97;;;1.45;;
42144;SDS011;27813;43.516;11.890;2023-09-19T20:56:04;7.05;;;1.70;;
42144;SDS011;27813;43.516;11.890;2023-09-19T21:00:08;4.93;;;1.70;;
42144;SDS011;27813;43.516;11.890;2023-09-19T21:04:23;3.33;;;1.45;;
42144;SDS011;27813;43.516;11.890;2023-09-19T21:08:39;3.28;;;1.60;;
42144;SDS011;27813;43.516;11.890;2023-09-19T21:12:54;3.08;;;1.50;;
42144;SDS011;27813;43.516;11.890;2023-09-19T21:16:59;6.30;;;1.70;;
42144;SDS011;27813;43.516;11.890;2023-09-19T21:21:09;2.95;;;1.42;;
42144;SDS011;27813;43.516;11.890;2023-09-19T21:25:16;3.80;;;1.52;;
42144;SDS011;27813;43.516;11.890;2023-09-19T21:29:27;4.15;;;1.60;;
42144;SDS011;27813;43.516;11.890;2023-09-19T21:33:36;7.20;;;1.42;;
42144;SDS011;27813;43.516;11.890;2023-09-19T21:37:49;3.90;;;1.48;;
42144;SDS011;27813;43.516;11.890;2023-09-19T21:41:53;4.38;;;1.73;;
42144;SDS011;27813;43.516;11.890;2023-09-19T21:45:57;2.00;;;1.40;;
42144;SDS011;27813;43.516;11.890;2023-09-19T21:50:02;5.05;;;1.70;;
42144;SDS011;27813;43.516;11.890;2023-09-19T21:54:06;3.28;;;1.88;;
42144;SDS011;27813;43.516;11.890;2023-09-19T21:58:11;3.78;;;1.50;;
42144;SDS011;27813;43.516;11.890;2023-09-19T22:02:15;3.80;;;1.58;;
42144;SDS011;27813;43.516;11.890;2023-09-19T22:06:19;4.88;;;1.60;;
42144;SDS011;27813;43.516;11.890;2023-09-19T22:10:24;3.63;;;1.70;;
42144;SDS011;27813;43.516;11.890;2023-09-19T22:14:29;3.83;;;1.50;;
42144;SDS011;27813;43.516;11.890;2023-09-19T22:18:33;8.18;;;2.72;;
42144;SDS011;27813;43.516;11.890;2023-09-19T22:22:37;3.63;;;1.40;;
42144;SDS011;27813;43.516;11.890;2023-09-19T22:26:41;3.92;;;1.50;;
42144;SDS011;27813;43.516;11.890;2023-09-19T22:30:48;3.08;;;1.52;;
42144;SDS011;27813;43.516;11.890;2023-09-19T22:38:57;3.00;;;1.77;;
42144;SDS011;27813;43.516;11.890;2023-09-19T22:43:07;3.28;;;1.60;;
42144;SDS011;27813;43.516;11.890;2023-09-19T22:47:12;4.07;;;1.70;;
42144;SDS011;27813;43.516;11.890;2023-09-19T22:55:26;5.72;;;2.03;;
42144;SDS011;27813;43.516;11.890;2023-09-19T22:59:34;4.72;;;1.88;;
42144;SDS011;27813;43.516;11.890;2023-09-19T23:03:39;2.80;;;1.52;;
42144;SDS011;27813;43.516;11.890;2023-09-19T23:07:49;2.53;;;1.60;;
42144;SDS011;27813;43.516;11.890;2023-09-19T23:12:03;4.07;;;1.77;;
42144;SDS011;27813;43.516;11.890;2023-09-19T23:16:14;3.13;;;1.50;;
42144;SDS011;27813;43.516;11.890;2023-09-19T23:20:21;5.82;;;1.50;;
42144;SDS011;27813;43.516;11.890;2023-09-19T23:24:30;4.72;;;2.05;;
42144;SDS011;27813;43.516;11.890;2023-09-19T23:28:39;5.35;;;1.90;;
